createdAt,value
2018-12-26T00:01:23.760Z,9.23
2018-12-26T00:03:53.064Z,8.70
2018-12-26T00:06:23.425Z,8.83
2018-12-26T00:08:55.040Z,7.50
2018-12-26T00:11:24.203Z,8.80
2018-12-26T00:13:54.712Z,8.97
2018-12-26T00:16:23.891Z,10.17
2018-12-26T00:18:56.152Z,9.53
2018-12-26T00:21:25.279Z,10.10
2018-12-26T00:23:54.405Z,6.87
2018-12-26T00:26:23.657Z,7.57
2018-12-26T00:28:52.741Z,9.70
2018-12-26T00:31:25.863Z,9.80
2018-12-26T00:33:56.111Z,9.90
2018-12-26T00:36:26.901Z,9.80
2018-12-26T00:39:00.154Z,10.57
2018-12-26T00:41:29.274Z,9.73
2018-12-26T00:44:00.342Z,9.07
2018-12-26T00:46:29.497Z,8.20
2018-12-26T00:48:58.983Z,9.13
2018-12-26T00:51:28.362Z,10.00
2018-12-26T00:54:04.621Z,9.00
2018-12-26T00:56:38.928Z,9.93
2018-12-26T00:59:08.159Z,10.27
2018-12-26T01:01:37.275Z,10.30
2018-12-26T01:04:06.357Z,10.10
2018-12-26T01:06:35.556Z,10.50
2018-12-26T01:09:06.867Z,10.27
2018-12-26T01:11:38.575Z,8.13
2018-12-26T01:14:07.660Z,9.50
2018-12-26T01:16:38.686Z,10.93
2018-12-26T01:19:09.259Z,10.00
2018-12-26T01:21:42.147Z,10.10
2018-12-26T01:24:11.228Z,8.37
2018-12-26T01:26:40.341Z,9.33
2018-12-26T01:29:12.784Z,8.30
2018-12-26T01:31:42.153Z,9.17
2018-12-26T01:34:12.376Z,9.53
2018-12-26T01:36:41.481Z,7.33
2018-12-26T01:39:10.556Z,9.30
2018-12-26T01:41:39.690Z,10.10
2018-12-26T01:44:10.509Z,8.80
2018-12-26T01:46:39.607Z,9.60
2018-12-26T01:49:09.712Z,9.00
2018-12-26T01:51:42.382Z,10.50
2018-12-26T01:54:12.363Z,9.70
2018-12-26T01:56:41.863Z,9.53
2018-12-26T01:59:12.362Z,8.87
2018-12-26T02:01:41.457Z,8.30
2018-12-26T02:04:14.058Z,8.87
2018-12-26T02:06:46.063Z,12.00
2018-12-26T02:09:15.805Z,10.43
2018-12-26T02:11:48.876Z,7.80
2018-12-26T02:14:18.050Z,8.70
2018-12-26T02:16:47.342Z,8.90
2018-12-26T02:19:16.466Z,10.20
2018-12-26T02:21:45.668Z,10.77
2018-12-26T02:24:19.078Z,9.07
2018-12-26T02:26:48.258Z,10.50
2018-12-26T02:29:18.763Z,9.50
2018-12-26T02:31:51.159Z,10.03
2018-12-26T02:34:23.551Z,8.93
2018-12-26T02:36:54.410Z,6.73
2018-12-26T02:39:26.326Z,8.37
2018-12-26T02:41:58.674Z,10.50
2018-12-26T02:44:27.795Z,8.17
2018-12-26T02:46:56.895Z,7.30
2018-12-26T02:49:27.460Z,10.30
2018-12-26T02:51:58.675Z,8.83
2018-12-26T02:54:35.960Z,9.70
2018-12-26T02:57:05.954Z,9.07
2018-12-26T02:59:35.104Z,10.17
2018-12-26T03:02:07.885Z,8.50
2018-12-26T03:04:42.573Z,7.70
2018-12-26T03:07:15.170Z,7.50
2018-12-26T03:09:47.013Z,10.00
2018-12-26T03:12:17.254Z,9.27
2018-12-26T03:14:46.423Z,8.57
2018-12-26T03:17:15.703Z,7.80
2018-12-26T03:19:49.992Z,7.70
2018-12-26T03:22:21.655Z,6.43
2018-12-26T03:24:50.743Z,6.50
2018-12-26T03:27:19.850Z,8.10
2018-12-26T03:29:48.926Z,8.27
2018-12-26T03:32:19.521Z,10.17
2018-12-26T03:34:48.656Z,9.03
2018-12-26T03:37:20.769Z,6.90
2018-12-26T03:39:49.990Z,7.57
2018-12-26T03:42:19.225Z,9.97
2018-12-26T03:44:49.225Z,7.27
2018-12-26T03:47:22.716Z,8.60
2018-12-26T03:49:59.112Z,6.67
2018-12-26T03:52:32.972Z,7.30
2018-12-26T03:55:02.199Z,8.70
2018-12-26T03:57:33.665Z,8.17
2018-12-26T04:00:02.755Z,9.10
2018-12-26T04:02:33.481Z,8.30
2018-12-26T04:05:02.679Z,7.43
2018-12-26T04:07:36.237Z,7.87
2018-12-26T04:10:05.844Z,8.43
2018-12-26T04:12:35.557Z,7.80
2018-12-26T04:15:05.017Z,8.10
2018-12-26T04:17:40.166Z,10.00
2018-12-26T04:20:05.573Z,7.57
2018-12-26T04:22:36.361Z,9.30
2018-12-26T04:25:05.487Z,8.23
2018-12-26T04:27:35.691Z,8.30
2018-12-26T04:30:14.204Z,7.80
2018-12-26T04:32:43.318Z,8.67
2018-12-26T04:35:12.427Z,8.97
2018-12-26T04:37:41.512Z,10.30
2018-12-26T04:40:10.633Z,8.23
2018-12-26T04:42:41.275Z,9.60
2018-12-26T04:45:12.443Z,9.90
2018-12-26T04:47:41.603Z,9.63
2018-12-26T04:50:10.748Z,8.83
2018-12-26T04:52:39.850Z,8.47
2018-12-26T04:55:08.970Z,6.97
2018-12-26T04:57:39.698Z,8.93
2018-12-26T05:00:13.421Z,7.27
2018-12-26T05:02:43.056Z,7.40
2018-12-26T05:05:12.153Z,8.10
2018-12-26T05:07:41.241Z,9.10
2018-12-26T05:10:10.356Z,8.60
2018-12-26T05:12:39.483Z,8.77
2018-12-26T05:15:09.888Z,7.20
2018-12-26T05:17:40.777Z,8.23
2018-12-26T05:20:09.839Z,9.90
2018-12-26T05:22:40.052Z,8.27
2018-12-26T05:25:10.295Z,9.57
2018-12-26T05:27:43.184Z,8.60
2018-12-26T05:30:18.600Z,8.30
2018-12-26T05:32:50.756Z,8.03
2018-12-26T05:35:19.866Z,9.03
2018-12-26T05:37:48.980Z,9.90
2018-12-26T05:40:18.056Z,8.10
2018-12-26T05:42:47.153Z,9.23
2018-12-26T05:45:16.306Z,7.20
2018-12-26T05:47:47.178Z,7.73
2018-12-26T05:50:16.266Z,8.77
2018-12-26T05:52:45.388Z,8.63
2018-12-26T05:55:16.167Z,7.23
2018-12-26T05:57:45.356Z,7.53
2018-12-26T06:00:20.498Z,7.67
2018-12-26T06:02:53.623Z,8.83
2018-12-26T06:05:22.927Z,9.10
2018-12-26T06:07:53.597Z,7.13
2018-12-26T06:10:22.743Z,8.43
2018-12-26T06:12:51.830Z,6.53
2018-12-26T06:15:21.291Z,9.27
2018-12-26T06:17:50.372Z,7.50
2018-12-26T06:20:22.348Z,8.73
2018-12-26T06:22:56.513Z,7.93
2018-12-26T06:25:29.507Z,7.83
2018-12-26T06:27:58.609Z,6.53
2018-12-26T06:30:31.282Z,7.33
2018-12-26T06:33:02.659Z,7.63
2018-12-26T06:35:31.748Z,8.10
2018-12-26T06:38:01.598Z,7.80
2018-12-26T06:40:32.801Z,8.80
2018-12-26T06:43:02.404Z,6.60
2018-12-26T06:45:31.590Z,7.67
2018-12-26T06:48:00.682Z,7.37
2018-12-26T06:50:29.981Z,9.53
2018-12-26T06:53:03.062Z,11.00
2018-12-26T06:55:33.568Z,10.13
2018-12-26T06:58:03.889Z,9.50
2018-12-26T07:00:33.409Z,6.93
2018-12-26T07:03:12.793Z,8.33
2018-12-26T07:05:41.971Z,10.40
2018-12-26T07:08:11.067Z,6.60
2018-12-26T07:10:40.204Z,6.83
2018-12-26T07:13:09.704Z,8.20
2018-12-26T07:15:39.306Z,7.47
2018-12-26T07:18:08.847Z,8.07
2018-12-26T07:20:40.524Z,8.03
2018-12-26T07:23:09.633Z,8.73
2018-12-26T07:25:40.557Z,7.27
2018-12-26T07:28:09.675Z,6.63
2018-12-26T07:30:38.743Z,8.47
2018-12-26T07:33:09.347Z,6.20
2018-12-26T07:35:38.522Z,8.17
2018-12-26T07:38:12.124Z,7.07
2018-12-26T07:40:42.346Z,6.47
2018-12-26T07:43:11.491Z,7.50
2018-12-26T07:45:42.763Z,6.67
2018-12-26T07:48:14.866Z,7.73
2018-12-26T07:50:47.029Z,6.30
2018-12-26T07:53:16.210Z,6.33
2018-12-26T07:55:45.512Z,6.50
2018-12-26T07:58:17.673Z,7.00
2018-12-26T08:00:47.770Z,7.57
2018-12-26T08:03:21.586Z,7.63
2018-12-26T08:05:51.822Z,7.10
2018-12-26T08:08:22.327Z,6.50
2018-12-26T08:10:54.652Z,7.10
2018-12-26T08:13:23.757Z,6.37
2018-12-26T08:15:52.864Z,7.30
2018-12-26T08:18:23.386Z,9.50
2018-12-26T08:20:52.723Z,5.93
2018-12-26T08:23:24.897Z,8.50
2018-12-26T08:25:54.033Z,7.73
2018-12-26T08:28:29.359Z,8.37
2018-12-26T08:30:54.048Z,7.00
2018-12-26T08:33:23.185Z,8.10
2018-12-26T08:35:52.328Z,7.67
2018-12-26T08:38:22.468Z,9.30
2018-12-26T08:40:53.322Z,7.40
2018-12-26T08:43:24.243Z,7.00
2018-12-26T08:45:58.261Z,7.67
2018-12-26T08:48:47.089Z,6.60
2018-12-26T08:51:18.648Z,7.87
2018-12-26T08:53:47.745Z,8.33
2018-12-26T08:56:17.379Z,8.33
2018-12-26T08:58:46.836Z,9.70
2018-12-26T09:01:16.346Z,6.50
2018-12-26T09:03:48.158Z,7.17
2018-12-26T09:06:24.363Z,7.10
2018-12-26T09:08:55.335Z,8.40
2018-12-26T09:11:26.040Z,5.93
2018-12-26T09:13:55.166Z,5.87
2018-12-26T09:16:24.304Z,5.20
2018-12-26T09:18:54.384Z,5.97
2018-12-26T09:21:24.921Z,5.60
2018-12-26T09:23:57.329Z,8.07
2018-12-26T09:26:28.445Z,6.60
2018-12-26T09:28:57.525Z,6.90
2018-12-26T09:31:26.624Z,6.90
2018-12-26T09:33:55.737Z,6.63
2018-12-26T09:36:24.921Z,8.83
2018-12-26T09:38:57.891Z,8.10
2018-12-26T09:41:27.302Z,7.57
2018-12-26T09:44:01.885Z,8.20
2018-12-26T09:46:30.972Z,8.00
2018-12-26T09:49:00.096Z,7.00
2018-12-26T09:51:29.259Z,11.90
2018-12-26T09:54:03.607Z,14.00
2018-12-26T09:56:35.232Z,9.80
2018-12-26T09:59:04.355Z,7.23
2018-12-26T10:01:33.503Z,17.80
2018-12-26T10:04:03.020Z,14.03
2018-12-26T10:06:32.146Z,7.50
2018-12-26T10:09:07.717Z,8.20
2018-12-26T10:11:38.726Z,8.50
2018-12-26T10:14:07.819Z,6.80
2018-12-26T10:16:36.970Z,7.43
2018-12-26T10:19:08.486Z,8.13
2018-12-26T10:21:43.306Z,6.50
2018-12-26T10:24:12.785Z,7.47
2018-12-26T10:26:41.920Z,6.00
2018-12-26T10:29:11.027Z,8.30
2018-12-26T10:31:40.332Z,7.17
2018-12-26T10:34:11.089Z,7.87
2018-12-26T10:36:40.179Z,8.17
2018-12-26T10:39:09.321Z,7.97
2018-12-26T10:41:39.507Z,7.10
2018-12-26T10:44:10.250Z,7.43
2018-12-26T10:46:39.386Z,6.40
2018-12-26T10:49:15.370Z,8.10
2018-12-26T10:51:44.523Z,8.30
2018-12-26T10:54:13.695Z,7.90
2018-12-26T10:56:43.095Z,8.20
2018-12-26T10:59:14.097Z,7.27
2018-12-26T11:01:43.208Z,7.13
2018-12-26T11:04:12.342Z,7.63
2018-12-26T11:06:44.259Z,10.47
2018-12-26T11:09:14.999Z,7.03
2018-12-26T11:11:44.172Z,7.60
2018-12-26T11:14:14.683Z,7.47
2018-12-26T11:16:47.229Z,7.43
2018-12-26T11:19:22.139Z,7.77
2018-12-26T11:21:52.761Z,8.87
2018-12-26T11:24:25.717Z,7.60
2018-12-26T11:27:04.361Z,7.10
2018-12-26T11:29:33.448Z,8.77
2018-12-26T11:32:02.547Z,8.70
2018-12-26T11:34:31.641Z,8.70
2018-12-26T11:37:02.182Z,6.80
2018-12-26T11:39:31.404Z,8.43
2018-12-26T11:42:03.257Z,6.93
2018-12-26T11:44:34.140Z,8.67
2018-12-26T11:47:05.920Z,7.70
2018-12-26T11:49:34.994Z,8.20
2018-12-26T11:52:07.226Z,6.70
2018-12-26T11:54:36.391Z,8.30
2018-12-26T11:57:09.601Z,7.80
2018-12-26T11:59:41.196Z,8.10
2018-12-26T12:02:20.413Z,7.07
2018-12-26T12:04:43.405Z,7.90
2018-12-26T12:07:13.813Z,7.43
2018-12-26T12:09:49.938Z,9.87
2018-12-26T12:12:23.055Z,8.37
2018-12-26T12:14:54.588Z,8.60
2018-12-26T12:17:24.114Z,8.67
2018-12-26T12:19:55.705Z,9.17
2018-12-26T12:22:25.133Z,8.43
2018-12-26T12:25:05.033Z,7.20
2018-12-26T12:27:34.144Z,9.20
2018-12-26T12:30:04.336Z,8.70
2018-12-26T12:32:35.233Z,7.20
2018-12-26T12:35:04.537Z,11.17
2018-12-26T12:37:36.620Z,8.60
2018-12-26T12:40:07.238Z,7.43
2018-12-26T12:42:37.501Z,10.70
2018-12-26T12:45:08.352Z,9.97
2018-12-26T12:47:38.767Z,7.40
2018-12-26T12:50:08.207Z,9.87
2018-12-26T12:52:40.439Z,8.73
2018-12-26T12:55:09.594Z,9.17
2018-12-26T12:57:39.606Z,8.37
2018-12-26T13:00:11.544Z,8.73
2018-12-26T13:02:46.762Z,8.57
2018-12-26T13:05:18.048Z,9.43
2018-12-26T13:07:46.808Z,9.73
2018-12-26T13:10:18.869Z,7.40
2018-12-26T13:12:48.006Z,10.20
2018-12-26T13:15:19.415Z,8.40
2018-12-26T13:17:48.593Z,9.23
2018-12-26T13:20:20.209Z,10.27
2018-12-26T13:22:49.607Z,9.40
2018-12-26T13:25:19.260Z,8.70
2018-12-26T13:27:48.843Z,8.40
2018-12-26T13:30:20.182Z,8.70
2018-12-26T13:32:55.470Z,9.40
2018-12-26T13:35:26.920Z,9.93
2018-12-26T13:37:56.380Z,11.13
2018-12-26T13:40:30.020Z,13.47
2018-12-26T13:43:00.489Z,10.93
2018-12-26T13:45:35.421Z,9.70
2018-12-26T13:48:04.634Z,9.00
2018-12-26T13:50:36.835Z,10.80
2018-12-26T13:53:06.016Z,8.80
2018-12-26T13:55:35.212Z,10.80
2018-12-26T13:58:04.463Z,9.77
2018-12-26T14:00:37.899Z,9.13
2018-12-26T14:03:10.123Z,9.23
2018-12-26T14:05:41.460Z,9.17
2018-12-26T14:08:10.317Z,11.00
2018-12-26T14:10:39.914Z,9.93
2018-12-26T14:13:11.913Z,9.50
2018-12-26T14:15:45.126Z,8.33
2018-12-26T14:18:16.314Z,9.00
2018-12-26T14:20:48.139Z,8.60
2018-12-26T14:23:19.124Z,8.37
2018-12-26T14:25:48.251Z,7.40
2018-12-26T14:28:19.069Z,8.43
2018-12-26T14:30:49.313Z,9.00
2018-12-26T14:33:18.453Z,10.60
2018-12-26T14:35:53.683Z,11.53
2018-12-26T14:38:22.845Z,12.30
2018-12-26T14:40:52.188Z,9.90
2018-12-26T14:43:21.285Z,10.30
2018-12-26T14:45:50.463Z,8.20
2018-12-26T14:48:19.582Z,10.27
2018-12-26T14:50:50.747Z,11.90
2018-12-26T14:53:20.951Z,10.67
2018-12-26T14:55:51.670Z,9.80
2018-12-26T14:58:22.499Z,9.57
2018-12-26T15:00:51.613Z,11.30
2018-12-26T15:03:20.701Z,10.70
2018-12-26T15:05:50.024Z,11.10
2018-12-26T15:08:20.415Z,11.73
2018-12-26T15:10:50.059Z,10.77
2018-12-26T15:13:19.108Z,8.83
2018-12-26T15:15:49.413Z,11.10
2018-12-26T15:18:20.599Z,10.60
2018-12-26T15:20:54.723Z,9.97
2018-12-26T15:23:22.164Z,10.30
2018-12-26T15:25:51.280Z,10.90
2018-12-26T15:28:20.399Z,9.87
2018-12-26T15:30:49.575Z,11.33
2018-12-26T15:33:23.128Z,9.87
2018-12-26T15:35:52.809Z,11.27
2018-12-26T15:38:21.936Z,10.27
2018-12-26T15:40:51.964Z,10.67
2018-12-26T15:43:21.049Z,10.77
2018-12-26T15:45:56.295Z,11.33
2018-12-26T15:48:25.795Z,11.50
2018-12-26T15:50:59.311Z,11.77
2018-12-26T15:53:34.111Z,11.97
2018-12-26T15:56:06.012Z,10.13
2018-12-26T15:58:35.239Z,10.03
2018-12-26T16:01:07.285Z,11.70
2018-12-26T16:03:38.615Z,13.27
2018-12-26T16:06:09.970Z,11.97
2018-12-26T16:08:51.306Z,11.80
2018-12-26T16:11:21.405Z,9.17
2018-12-26T16:13:50.875Z,12.40
2018-12-26T16:16:24.237Z,10.87
2018-12-26T16:18:53.557Z,11.30
2018-12-26T16:21:23.988Z,13.20
2018-12-26T16:23:55.928Z,12.30
2018-12-26T16:26:27.064Z,9.80
2018-12-26T16:29:00.650Z,10.60
2018-12-26T16:31:29.807Z,12.20
2018-12-26T16:34:00.305Z,12.23
2018-12-26T16:36:30.674Z,12.50
2018-12-26T16:39:09.659Z,10.87
2018-12-26T16:41:39.441Z,11.53
2018-12-26T16:44:13.583Z,14.07
2018-12-26T16:46:47.600Z,11.33
2018-12-26T16:49:21.500Z,11.73
2018-12-26T16:51:55.313Z,12.80
2018-12-26T16:54:26.204Z,14.33
2018-12-26T16:56:55.511Z,11.67
2018-12-26T16:59:28.905Z,12.87
2018-12-26T17:02:00.476Z,12.20
2018-12-26T17:04:29.672Z,14.90
2018-12-26T17:06:58.768Z,14.53
2018-12-26T17:09:31.644Z,12.53
2018-12-26T17:12:00.753Z,13.17
2018-12-26T17:14:29.885Z,13.73
2018-12-26T17:16:59.182Z,9.57
2018-12-26T17:19:29.625Z,12.57
2018-12-26T17:21:59.080Z,14.23
2018-12-26T17:24:28.170Z,12.30
2018-12-26T17:26:57.375Z,14.37
2018-12-26T17:29:28.624Z,12.57
2018-12-26T17:31:57.759Z,15.40
2018-12-26T17:34:32.354Z,13.70
2018-12-26T17:37:01.557Z,18.27
2018-12-26T17:39:32.876Z,13.97
2018-12-26T17:42:01.978Z,12.83
2018-12-26T17:44:32.311Z,16.00
2018-12-26T17:47:04.646Z,15.00
2018-12-26T17:49:35.246Z,15.53
2018-12-26T17:52:04.424Z,13.60
2018-12-26T17:55:04.318Z,14.77
2018-12-26T17:57:41.976Z,17.33
2018-12-26T18:01:03.677Z,21.80
2018-12-26T18:03:32.850Z,19.90
2018-12-26T18:06:02.331Z,19.97
2018-12-26T18:08:37.366Z,17.93
2018-12-26T18:11:06.489Z,19.40
2018-12-26T18:13:35.609Z,17.87
2018-12-26T18:16:04.820Z,17.90
2018-12-26T18:18:40.387Z,19.07
2018-12-26T18:21:09.886Z,20.77
2018-12-26T18:23:40.951Z,18.30
2018-12-26T18:26:10.067Z,20.00
2018-12-26T18:28:41.724Z,19.47
2018-12-26T18:31:21.968Z,18.80
2018-12-26T18:33:45.552Z,15.63
2018-12-26T18:36:19.799Z,14.30
2018-12-26T18:38:48.905Z,19.07
2018-12-26T18:41:18.021Z,15.87
2018-12-26T18:43:48.133Z,13.50
2018-12-26T18:46:20.137Z,16.23
2018-12-26T18:48:49.309Z,18.20
2018-12-26T18:51:19.506Z,19.27
2018-12-26T18:53:49.964Z,16.17
2018-12-26T18:56:22.107Z,17.53
2018-12-26T18:58:57.405Z,13.80
2018-12-26T19:01:30.653Z,14.70
2018-12-26T19:03:57.513Z,13.20
2018-12-26T19:06:26.606Z,12.43
2018-12-26T19:08:57.030Z,12.90
2018-12-26T19:11:32.762Z,13.90
2018-12-26T19:14:01.936Z,15.10
2018-12-26T19:16:31.029Z,15.40
2018-12-26T19:19:02.946Z,15.33
2018-12-26T19:21:34.087Z,15.73
2018-12-26T19:24:07.740Z,14.63
2018-12-26T19:26:36.964Z,17.03
2018-12-26T19:29:06.099Z,14.37
2018-12-26T19:31:39.507Z,15.43
2018-12-26T19:34:06.252Z,14.60
2018-12-26T19:36:35.390Z,15.83
2018-12-26T19:39:06.411Z,20.10
2018-12-26T19:41:35.524Z,17.00
2018-12-26T19:44:04.705Z,16.40
2018-12-26T19:46:33.790Z,16.47
2018-12-26T19:49:05.789Z,15.00
2018-12-26T19:51:36.985Z,14.33
2018-12-26T19:54:06.097Z,15.30
2018-12-26T19:56:35.506Z,14.13
2018-12-26T19:59:04.913Z,15.40
2018-12-26T20:01:48.153Z,14.57
2018-12-26T20:04:04.838Z,13.73
2018-12-26T20:06:36.973Z,15.80
2018-12-26T20:09:07.453Z,14.50
2018-12-26T20:11:38.630Z,15.80
2018-12-26T20:14:07.927Z,15.07
2018-12-26T20:16:37.092Z,13.20
2018-12-26T20:19:15.439Z,12.73
2018-12-26T20:21:44.585Z,14.70
2018-12-26T20:24:17.861Z,12.97
2018-12-26T20:26:51.280Z,13.90
2018-12-26T20:29:23.428Z,14.53
2018-12-26T20:31:56.853Z,15.07
2018-12-26T20:34:29.528Z,15.87
2018-12-26T20:37:01.697Z,13.67
2018-12-26T20:39:32.076Z,14.47
2018-12-26T20:42:01.116Z,12.63
2018-12-26T20:44:30.708Z,12.43
2018-12-26T20:47:00.074Z,14.17
2018-12-26T20:49:30.478Z,12.90
2018-12-26T20:52:02.143Z,13.10
2018-12-26T20:54:32.071Z,11.13
2018-12-26T20:57:06.799Z,12.70
2018-12-26T20:59:42.272Z,11.23
2018-12-26T21:02:12.640Z,11.23
2018-12-26T21:04:43.368Z,12.20
2018-12-26T21:07:12.487Z,13.07
2018-12-26T21:09:41.617Z,12.23
2018-12-26T21:12:11.844Z,14.47
2018-12-26T21:14:40.956Z,12.80
2018-12-26T21:17:11.387Z,16.43
2018-12-26T21:19:40.851Z,13.43
2018-12-26T21:22:09.968Z,13.40
2018-12-26T21:24:39.069Z,12.23
2018-12-26T21:27:08.239Z,12.13
2018-12-26T21:29:38.556Z,16.83
2018-12-26T21:32:14.057Z,13.83
2018-12-26T21:34:39.420Z,12.80
2018-12-26T21:37:08.524Z,13.67
2018-12-26T21:39:41.729Z,13.57
2018-12-26T21:42:10.859Z,12.00
2018-12-26T21:44:41.778Z,10.83
2018-12-26T21:47:11.986Z,13.83
2018-12-26T21:49:42.746Z,10.47
2018-12-26T21:52:11.931Z,12.13
2018-12-26T21:54:42.122Z,12.40
2018-12-26T21:57:11.422Z,12.33
2018-12-26T21:59:40.554Z,11.50
2018-12-26T22:02:22.365Z,12.47
2018-12-26T22:04:50.841Z,12.93
2018-12-26T22:07:21.920Z,14.00
2018-12-26T22:09:51.022Z,14.50
2018-12-26T22:12:20.418Z,15.60
2018-12-26T22:14:49.810Z,14.20
2018-12-26T22:17:21.019Z,13.80
2018-12-26T22:19:50.232Z,13.00
2018-12-26T22:22:19.374Z,13.63
2018-12-26T22:24:48.486Z,12.30
2018-12-26T22:27:20.002Z,15.27
2018-12-26T22:29:49.406Z,14.90
2018-12-26T22:32:18.655Z,14.80
2018-12-26T22:34:47.865Z,13.40
2018-12-26T22:37:18.102Z,13.40
2018-12-26T22:39:47.206Z,13.87
2018-12-26T22:42:16.370Z,12.77
2018-12-26T22:44:49.861Z,13.50
2018-12-26T22:47:18.953Z,13.83
2018-12-26T22:49:48.936Z,13.43
2018-12-26T22:52:27.078Z,13.63
2018-12-26T22:54:56.221Z,13.13
2018-12-26T22:57:26.210Z,13.80
2018-12-26T22:59:57.082Z,12.33
2018-12-26T23:02:26.322Z,12.67
2018-12-26T23:04:56.914Z,11.83
2018-12-26T23:07:29.684Z,13.60
2018-12-26T23:09:59.236Z,13.50
2018-12-26T23:12:28.338Z,15.23
2018-12-26T23:14:57.599Z,12.20
2018-12-26T23:17:26.806Z,15.07
2018-12-26T23:19:57.624Z,12.87
2018-12-26T23:22:29.506Z,13.90
2018-12-26T23:24:59.729Z,11.47
2018-12-26T23:27:28.927Z,15.67
2018-12-26T23:29:58.132Z,13.20
2018-12-26T23:32:27.603Z,13.70
2018-12-26T23:34:59.509Z,12.27
2018-12-26T23:37:30.559Z,13.60
2018-12-26T23:40:04.613Z,13.30
2018-12-26T23:42:39.190Z,12.83
2018-12-26T23:45:08.347Z,12.10
2018-12-26T23:47:37.458Z,12.27
2018-12-26T23:50:07.885Z,11.20
2018-12-26T23:52:38.033Z,14.03
2018-12-26T23:55:08.997Z,14.23
2018-12-26T23:57:42.226Z,13.37
